sensor_id;sensor_type;location;lat;lon;timestamp;pressure;altitude;pressure_sealevel;temperature;humidity
52797;BME280;38666;43.348;12.584;2022-09-01T06:56:06;95355.94;;;20.09;78.03
52797;BME280;38666;43.348;12.584;2022-09-01T06:58:35;95350.69;;;20.12;77.75
52797;BME280;38666;43.348;12.584;2022-09-01T07:01:06;95353.78;;;20.14;78.90
52797;BME280;38666;43.348;12.584;2022-09-01T07:03:36;95346.91;;;20.24;78.25
52797;BME280;38666;43.348;12.584;2022-09-01T07:06:05;95347.59;;;20.34;76.17
52797;BME280;38666;43.348;12.584;2022-09-01T07:08:31;95350.09;;;20.32;76.54
52797;BME280;38666;43.348;12.584;2022-09-01T07:11:05;95356.41;;;20.32;77.00
52797;BME280;38666;43.348;12.584;2022-09-01T07:13:32;95363.75;;;20.36;75.63
52797;BME280;38666;43.348;12.584;2022-09-01T07:16:00;95370.63;;;20.25;76.31
52797;BME280;38666;43.348;12.584;2022-09-01T07:18:26;95384.53;;;20.16;76.04
52797;BME280;38666;43.348;12.584;2022-09-01T07:20:53;95381.84;;;20.06;83.62
52797;BME280;38666;43.348;12.584;2022-09-01T07:23:20;95378.47;;;19.93;86.20
52797;BME280;38666;43.348;12.584;2022-09-01T07:25:47;95383.13;;;19.87;87.88
52797;BME280;38666;43.348;12.584;2022-09-01T07:28:14;95379.09;;;19.97;85.99
52797;BME280;38666;43.348;12.584;2022-09-01T07:30:46;95369.53;;;19.98;82.59
52797;BME280;38666;43.348;12.584;2022-09-01T07:33:16;95364.25;;;20.09;78.04
52797;BME280;38666;43.348;12.584;2022-09-01T07:35:46;95368.19;;;20.18;76.92
52797;BME280;38666;43.348;12.584;2022-09-01T07:38:12;95381.53;;;20.29;75.05
52797;BME280;38666;43.348;12.584;2022-09-01T07:40:40;95382.97;;;20.24;75.44
52797;BME280;38666;43.348;12.584;2022-09-01T07:45:34;95396.00;;;20.08;77.44
52797;BME280;38666;43.348;12.584;2022-09-01T07:48:02;95416.09;;;20.18;78.69
52797;BME280;38666;43.348;12.584;2022-09-01T07:50:31;95412.06;;;19.85;81.50
52797;BME280;38666;43.348;12.584;2022-09-01T07:52:57;95402.88;;;19.79;83.66
52797;BME280;38666;43.348;12.584;2022-09-01T07:55:24;95395.19;;;19.74;84.72
52797;BME280;38666;43.348;12.584;2022-09-01T07:57:50;95381.81;;;19.72;85.71
52797;BME280;38666;43.348;12.584;2022-09-01T08:00:16;95382.56;;;19.73;84.97
52797;BME280;38666;43.348;12.584;2022-09-01T08:02:42;95376.44;;;19.69;85.74
52797;BME280;38666;43.348;12.584;2022-09-01T08:05:14;95387.88;;;19.61;84.94
52797;BME280;38666;43.348;12.584;2022-09-01T08:07:43;95383.50;;;19.70;83.26
52797;BME280;38666;43.348;12.584;2022-09-01T08:10:11;95398.91;;;19.71;83.86
52797;BME280;38666;43.348;12.584;2022-09-01T08:12:37;95412.81;;;19.52;84.48
52797;BME280;38666;43.348;12.584;2022-09-01T08:15:04;95438.31;;;19.66;84.31
52797;BME280;38666;43.348;12.584;2022-09-01T08:17:30;95431.53;;;19.76;85.85
52797;BME280;38666;43.348;12.584;2022-09-01T08:19:56;95424.50;;;19.56;86.78
52797;BME280;38666;43.348;12.584;2022-09-01T08:22:21;95416.16;;;18.94;90.14
52797;BME280;38666;43.348;12.584;2022-09-01T08:24:52;95423.50;;;18.97;91.68
52797;BME280;38666;43.348;12.584;2022-09-01T08:27:19;95426.75;;;18.86;89.98
52797;BME280;38666;43.348;12.584;2022-09-01T08:29:44;95435.97;;;18.74;90.80
52797;BME280;38666;43.348;12.584;2022-09-01T08:32:10;95434.41;;;18.92;90.62
52797;BME280;38666;43.348;12.584;2022-09-01T08:34:36;95428.88;;;19.10;88.57
52797;BME280;38666;43.348;12.584;2022-09-01T08:37:03;95421.66;;;19.32;86.73
52797;BME280;38666;43.348;12.584;2022-09-01T08:39:29;95419.94;;;19.34;86.55
52797;BME280;38666;43.348;12.584;2022-09-01T08:42:13;95431.94;;;19.31;85.17
52797;BME280;38666;43.348;12.584;2022-09-01T08:47:29;95430.75;;;19.23;87.85
52797;BME280;38666;43.348;12.584;2022-09-01T08:49:55;95426.09;;;19.29;87.52
52797;BME280;38666;43.348;12.584;2022-09-01T08:55:08;95419.91;;;19.53;86.24
52797;BME280;38666;43.348;12.584;2022-09-01T08:57:38;95423.53;;;19.69;84.24
52797;BME280;38666;43.348;12.584;2022-09-01T09:00:06;95417.53;;;19.70;84.10
52797;BME280;38666;43.348;12.584;2022-09-01T09:03:15;95427.34;;;19.81;82.49
52797;BME280;38666;43.348;12.584;2022-09-01T09:13:59;95454.31;;;19.71;86.91
52797;BME280;38666;43.348;12.584;2022-09-01T09:16:41;95456.53;;;19.48;87.00
52797;BME280;38666;43.348;12.584;2022-09-01T09:19:18;95466.72;;;19.13;89.56
52797;BME280;38666;43.348;12.584;2022-09-01T09:21:48;95469.78;;;18.97;93.28
52797;BME280;38666;43.348;12.584;2022-09-01T09:29:52;95463.63;;;18.74;92.42
52797;BME280;38666;43.348;12.584;2022-09-01T09:32:19;95471.16;;;19.30;90.30
52797;BME280;38666;43.348;12.584;2022-09-01T09:34:46;95463.31;;;19.37;88.01
52797;BME280;38666;43.348;12.584;2022-09-01T09:40:06;95463.75;;;19.55;86.78
52797;BME280;38666;43.348;12.584;2022-09-01T09:42:37;95459.88;;;19.61;87.20
52797;BME280;38666;43.348;12.584;2022-09-01T09:45:17;95467.19;;;19.83;87.45
52797;BME280;38666;43.348;12.584;2022-09-01T09:47:45;95458.53;;;19.47;87.50
52797;BME280;38666;43.348;12.584;2022-09-01T09:52:36;95454.09;;;19.84;87.12
52797;BME280;38666;43.348;12.584;2022-09-01T09:55:20;95452.06;;;19.94;85.73
52797;BME280;38666;43.348;12.584;2022-09-01T09:57:46;95456.91;;;20.18;84.95
52797;BME280;38666;43.348;12.584;2022-09-01T10:02:45;95449.31;;;20.28;81.92
52797;BME280;38666;43.348;12.584;2022-09-01T10:08:00;95443.03;;;20.18;79.61
52797;BME280;38666;43.348;12.584;2022-09-01T10:10:30;95436.13;;;19.79;83.95
52797;BME280;38666;43.348;12.584;2022-09-01T10:13:00;95434.50;;;19.54;87.75
52797;BME280;38666;43.348;12.584;2022-09-01T10:15:29;95440.03;;;19.97;84.70
52797;BME280;38666;43.348;12.584;2022-09-01T10:18:05;95434.78;;;20.08;83.82
52797;BME280;38666;43.348;12.584;2022-09-01T10:20:33;95425.84;;;20.14;82.16
52797;BME280;38666;43.348;12.584;2022-09-01T10:23:01;95417.19;;;19.78;84.84
52797;BME280;38666;43.348;12.584;2022-09-01T10:25:29;95416.03;;;19.94;85.41
52797;BME280;38666;43.348;12.584;2022-09-01T10:28:29;95412.00;;;20.04;83.01
52797;BME280;38666;43.348;12.584;2022-09-01T10:30:56;95413.41;;;20.00;83.65
52797;BME280;38666;43.348;12.584;2022-09-01T10:33:24;95407.66;;;20.13;83.38
52797;BME280;38666;43.348;12.584;2022-09-01T10:35:51;95412.75;;;20.39;82.85
52797;BME280;38666;43.348;12.584;2022-09-01T10:38:25;95412.44;;;20.76;82.07
52797;BME280;38666;43.348;12.584;2022-09-01T10:40:54;95416.97;;;21.13;79.75
52797;BME280;38666;43.348;12.584;2022-09-01T10:45:58;95405.28;;;21.55;74.79
52797;BME280;38666;43.348;12.584;2022-09-01T10:48:31;95411.06;;;21.87;74.78
52797;BME280;38666;43.348;12.584;2022-09-01T10:53:46;95410.19;;;21.96;71.29
52797;BME280;38666;43.348;12.584;2022-09-01T10:58:58;95414.91;;;22.25;67.26
52797;BME280;38666;43.348;12.584;2022-09-01T11:04:09;95406.22;;;23.92;60.88
52797;BME280;38666;43.348;12.584;2022-09-01T11:14:28;95404.47;;;27.76;49.82
52797;BME280;38666;43.348;12.584;2022-09-01T11:17:20;95412.38;;;27.35;48.48
52797;BME280;38666;43.348;12.584;2022-09-01T11:20:39;95411.78;;;27.85;48.06
52797;BME280;38666;43.348;12.584;2022-09-01T11:22:44;95420.31;;;27.68;47.24
52797;BME280;38666;43.348;12.584;2022-09-01T11:36:15;95418.97;;;30.99;41.12
52797;BME280;38666;43.348;12.584;2022-09-01T11:38:53;95403.03;;;31.58;38.47
52797;BME280;38666;43.348;12.584;2022-09-01T11:41:28;95410.06;;;30.81;39.92
52797;BME280;38666;43.348;12.584;2022-09-01T11:43:57;95439.41;;;32.04;38.03
52797;BME280;38666;43.348;12.584;2022-09-01T11:46:29;95418.88;;;33.60;34.89
52797;BME280;38666;43.348;12.584;2022-09-01T11:48:59;95406.63;;;32.30;36.52
52797;BME280;38666;43.348;12.584;2022-09-01T11:51:26;95415.59;;;33.24;33.79
52797;BME280;38666;43.348;12.584;2022-09-01T11:53:57;95401.34;;;32.56;34.42
52797;BME280;38666;43.348;12.584;2022-09-01T11:56:26;95399.59;;;31.94;36.39
52797;BME280;38666;43.348;12.584;2022-09-01T11:58:52;95423.41;;;31.29;36.87
52797;BME280;38666;43.348;12.584;2022-09-01T12:03:49;95413.13;;;30.15;39.58
52797;BME280;38666;43.348;12.584;2022-09-01T12:06:24;95423.00;;;29.24;41.33
52797;BME280;38666;43.348;12.584;2022-09-01T12:08:56;95415.41;;;29.38;40.51
52797;BME280;38666;43.348;12.584;2022-09-01T12:11:25;95401.09;;;30.01;39.44
52797;BME280;38666;43.348;12.584;2022-09-01T12:14:06;95410.13;;;31.51;36.09
52797;BME280;38666;43.348;12.584;2022-09-01T12:16:33;95408.38;;;32.41;35.38
52797;BME280;38666;43.348;12.584;2022-09-01T12:19:04;95398.72;;;33.03;33.46
52797;BME280;38666;43.348;12.584;2022-09-01T12:24:17;95402.78;;;35.13;30.22
52797;BME280;38666;43.348;12.584;2022-09-01T12:26:44;95387.41;;;34.83;29.90
52797;BME280;38666;43.348;12.584;2022-09-01T12:29:11;95373.88;;;34.50;30.42
52797;BME280;38666;43.348;12.584;2022-09-01T12:31:40;95384.88;;;34.30;31.38
52797;BME280;38666;43.348;12.584;2022-09-01T12:37:11;95381.34;;;33.67;30.84
52797;BME280;38666;43.348;12.584;2022-09-01T12:39:45;95369.44;;;35.29;29.20
52797;BME280;38666;43.348;12.584;2022-09-01T12:42:24;95381.59;;;34.65;29.69
52797;BME280;38666;43.348;12.584;2022-09-01T12:45:00;95370.91;;;33.31;32.00
52797;BME280;38666;43.348;12.584;2022-09-01T12:50:43;95383.91;;;30.46;36.57
52797;BME280;38666;43.348;12.584;2022-09-01T12:52:48;95392.69;;;29.68;38.03
52797;BME280;38666;43.348;12.584;2022-09-01T12:57:54;95405.25;;;28.27;39.89
52797;BME280;38666;43.348;12.584;2022-09-01T13:00:24;95399.09;;;28.53;40.22
52797;BME280;38666;43.348;12.584;2022-09-01T13:05:36;95411.75;;;28.41;41.00
52797;BME280;38666;43.348;12.584;2022-09-01T13:08:09;95405.81;;;28.69;40.60
52797;BME280;38666;43.348;12.584;2022-09-01T13:10:40;95418.81;;;28.47;41.07
52797;BME280;38666;43.348;12.584;2022-09-01T13:13:07;95421.47;;;28.84;40.45
52797;BME280;38666;43.348;12.584;2022-09-01T13:15:34;95410.31;;;28.03;42.57
52797;BME280;38666;43.348;12.584;2022-09-01T13:18:00;95428.53;;;27.60;43.69
52797;BME280;38666;43.348;12.584;2022-09-01T13:20:26;95422.69;;;27.58;43.37
52797;BME280;38666;43.348;12.584;2022-09-01T13:22:51;95418.78;;;27.72;43.12
52797;BME280;38666;43.348;12.584;2022-09-01T13:25:20;95412.63;;;28.05;41.63
52797;BME280;38666;43.348;12.584;2022-09-01T13:27:46;95423.00;;;27.12;44.06
52797;BME280;38666;43.348;12.584;2022-09-01T13:30:20;95417.22;;;26.16;46.16
52797;BME280;38666;43.348;12.584;2022-09-01T13:32:47;95413.69;;;25.87;47.38
52797;BME280;38666;43.348;12.584;2022-09-01T13:35:16;95408.09;;;25.75;47.78
52797;BME280;38666;43.348;12.584;2022-09-01T13:37:43;95414.44;;;25.35;49.60
52797;BME280;38666;43.348;12.584;2022-09-01T13:40:09;95411.38;;;25.39;48.96
52797;BME280;38666;43.348;12.584;2022-09-01T13:42:44;95410.06;;;25.11;50.25
52797;BME280;38666;43.348;12.584;2022-09-01T13:45:11;95403.31;;;24.69;51.26
52797;BME280;38666;43.348;12.584;2022-09-01T13:47:41;95422.34;;;24.59;52.10
52797;BME280;38666;43.348;12.584;2022-09-01T13:50:08;95428.56;;;24.36;52.28
52797;BME280;38666;43.348;12.584;2022-09-01T13:52:35;95438.78;;;24.51;52.53
52797;BME280;38666;43.348;12.584;2022-09-01T13:55:02;95436.97;;;24.04;54.00
52797;BME280;38666;43.348;12.584;2022-09-01T13:57:27;95434.22;;;24.10;54.29
52797;BME280;38666;43.348;12.584;2022-09-01T13:59:54;95447.03;;;23.96;55.55
52797;BME280;38666;43.348;12.584;2022-09-01T14:02:20;95449.09;;;23.63;56.28
52797;BME280;38666;43.348;12.584;2022-09-01T14:04:45;95440.94;;;23.32;57.70
52797;BME280;38666;43.348;12.584;2022-09-01T14:07:11;95440.59;;;23.25;58.03
52797;BME280;38666;43.348;12.584;2022-09-01T14:09:36;95447.69;;;23.47;58.27
52797;BME280;38666;43.348;12.584;2022-09-01T14:12:02;95441.22;;;23.61;57.03
52797;BME280;38666;43.348;12.584;2022-09-01T14:14:29;95447.25;;;23.54;57.04
52797;BME280;38666;43.348;12.584;2022-09-01T14:16:54;95442.75;;;23.36;57.91
52797;BME280;38666;43.348;12.584;2022-09-01T14:19:20;95443.75;;;23.12;58.19
52797;BME280;38666;43.348;12.584;2022-09-01T14:21:47;95457.56;;;23.00;59.62
52797;BME280;38666;43.348;12.584;2022-09-01T14:24:13;95456.72;;;22.94;59.57
52797;BME280;38666;43.348;12.584;2022-09-01T14:26:40;95462.25;;;22.88;60.64
52797;BME280;38666;43.348;12.584;2022-09-01T14:29:05;95459.09;;;22.59;61.94
52797;BME280;38666;43.348;12.584;2022-09-01T14:31:32;95472.03;;;22.42;63.09
52797;BME280;38666;43.348;12.584;2022-09-01T14:33:58;95478.91;;;22.46;62.84
52797;BME280;38666;43.348;12.584;2022-09-01T14:36:25;95477.94;;;22.13;64.12
52797;BME280;38666;43.348;12.584;2022-09-01T14:38:51;95486.81;;;22.33;63.41
52797;BME280;38666;43.348;12.584;2022-09-01T14:41:19;95488.84;;;22.53;61.89
52797;BME280;38666;43.348;12.584;2022-09-01T14:43:51;95482.19;;;22.30;63.04
52797;BME280;38666;43.348;12.584;2022-09-01T14:46:18;95477.13;;;22.64;62.36
52797;BME280;38666;43.348;12.584;2022-09-01T14:48:45;95477.00;;;22.73;61.37
52797;BME280;38666;43.348;12.584;2022-09-01T14:51:23;95473.09;;;22.86;60.89
52797;BME280;38666;43.348;12.584;2022-09-01T14:53:51;95473.38;;;22.88;60.68
52797;BME280;38666;43.348;12.584;2022-09-01T14:56:17;95462.94;;;23.30;58.72
52797;BME280;38666;43.348;12.584;2022-09-01T14:58:44;95464.28;;;23.62;57.82
52797;BME280;38666;43.348;12.584;2022-09-01T15:01:15;95463.97;;;23.54;57.72
52797;BME280;38666;43.348;12.584;2022-09-01T15:03:42;95457.22;;;24.37;55.76
52797;BME280;38666;43.348;12.584;2022-09-01T15:06:11;95457.78;;;25.02;53.75
52797;BME280;38666;43.348;12.584;2022-09-01T15:08:36;95450.50;;;25.33;51.84
52797;BME280;38666;43.348;12.584;2022-09-01T15:11:05;95454.53;;;25.15;52.92
52797;BME280;38666;43.348;12.584;2022-09-01T15:13:31;95453.63;;;24.80;53.71
52797;BME280;38666;43.348;12.584;2022-09-01T15:15:57;95445.50;;;24.76;54.30
52797;BME280;38666;43.348;12.584;2022-09-01T15:18:22;95435.94;;;24.95;53.75
52797;BME280;38666;43.348;12.584;2022-09-01T15:20:48;95444.72;;;25.66;51.23
52797;BME280;38666;43.348;12.584;2022-09-01T15:23:18;95439.34;;;25.96;49.94
52797;BME280;38666;43.348;12.584;2022-09-01T15:25:45;95439.59;;;26.16;49.90
52797;BME280;38666;43.348;12.584;2022-09-01T15:28:11;95441.09;;;26.40;48.24
52797;BME280;38666;43.348;12.584;2022-09-01T15:30:38;95437.34;;;25.74;51.02
52797;BME280;38666;43.348;12.584;2022-09-01T15:33:04;95441.72;;;28.02;45.49
52797;BME280;38666;43.348;12.584;2022-09-01T15:35:31;95439.75;;;27.60;45.82
52797;BME280;38666;43.348;12.584;2022-09-01T15:37:57;95441.59;;;26.38;48.57
52797;BME280;38666;43.348;12.584;2022-09-01T15:40:23;95441.84;;;27.90;45.17
52797;BME280;38666;43.348;12.584;2022-09-01T15:42:49;95438.09;;;28.32;43.97
52797;BME280;38666;43.348;12.584;2022-09-01T15:45:18;95449.53;;;26.99;47.99
52797;BME280;38666;43.348;12.584;2022-09-01T15:47:44;95440.03;;;26.54;48.09
52797;BME280;38666;43.348;12.584;2022-09-01T15:50:15;95450.09;;;27.76;45.49
52797;BME280;38666;43.348;12.584;2022-09-01T15:52:59;95444.06;;;27.61;45.60
52797;BME280;38666;43.348;12.584;2022-09-01T15:55:37;95443.13;;;27.10;45.61
52797;BME280;38666;43.348;12.584;2022-09-01T15:58:05;95437.25;;;29.64;40.26
52797;BME280;38666;43.348;12.584;2022-09-01T16:00:30;95433.38;;;31.44;36.34
52797;BME280;38666;43.348;12.584;2022-09-01T16:02:56;95439.56;;;30.67;37.10
52797;BME280;38666;43.348;12.584;2022-09-01T16:05:26;95435.97;;;32.27;34.12
52797;BME280;38666;43.348;12.584;2022-09-01T16:07:53;95428.94;;;32.71;33.47
52797;BME280;38666;43.348;12.584;2022-09-01T16:10:18;95430.56;;;33.03;33.10
52797;BME280;38666;43.348;12.584;2022-09-01T16:12:44;95430.66;;;31.73;34.53
52797;BME280;38666;43.348;12.584;2022-09-01T16:15:16;95420.13;;;31.39;35.59
52797;BME280;38666;43.348;12.584;2022-09-01T16:20:23;95430.84;;;28.67;40.73
52797;BME280;38666;43.348;12.584;2022-09-01T16:25:30;95440.81;;;26.49;46.58
52797;BME280;38666;43.348;12.584;2022-09-01T16:27:59;95445.22;;;25.76;48.68
52797;BME280;38666;43.348;12.584;2022-09-01T16:30:27;95450.47;;;25.10;50.98
52797;BME280;38666;43.348;12.584;2022-09-01T16:32:56;95456.56;;;24.15;53.92
52797;BME280;38666;43.348;12.584;2022-09-01T16:38:29;95463.59;;;22.57;59.63
52797;BME280;38666;43.348;12.584;2022-09-01T16:44:42;95462.69;;;22.24;60.80
52797;BME280;38666;43.348;12.584;2022-09-01T16:53:32;95463.78;;;22.32;59.76
52797;BME280;38666;43.348;12.584;2022-09-01T16:56:09;95468.16;;;22.75;58.42
52797;BME280;38666;43.348;12.584;2022-09-01T16:58:47;95462.47;;;22.28;59.64
52797;BME280;38666;43.348;12.584;2022-09-01T17:03:55;95468.00;;;21.76;62.15
52797;BME280;38666;43.348;12.584;2022-09-01T17:06:36;95465.63;;;21.84;61.65
52797;BME280;38666;43.348;12.584;2022-09-01T17:09:10;95476.53;;;21.73;62.40
52797;BME280;38666;43.348;12.584;2022-09-01T17:11:45;95484.31;;;21.84;62.34
52797;BME280;38666;43.348;12.584;2022-09-01T17:14:17;95496.28;;;21.60;62.78
52797;BME280;38666;43.348;12.584;2022-09-01T17:17:06;95490.50;;;21.48;63.79
52797;BME280;38666;43.348;12.584;2022-09-01T17:19:33;95489.94;;;21.44;63.76
52797;BME280;38666;43.348;12.584;2022-09-01T17:22:07;95491.81;;;21.08;65.77
52797;BME280;38666;43.348;12.584;2022-09-01T17:27:07;95499.75;;;21.15;65.94
52797;BME280;38666;43.348;12.584;2022-09-01T17:29:51;95507.56;;;20.77;67.46
52797;BME280;38666;43.348;12.584;2022-09-01T17:35:24;95530.97;;;21.10;66.82
52797;BME280;38666;43.348;12.584;2022-09-01T17:38:00;95535.72;;;20.85;67.11
52797;BME280;38666;43.348;12.584;2022-09-01T17:40:38;95539.25;;;20.61;68.25
52797;BME280;38666;43.348;12.584;2022-09-01T17:45:56;95545.06;;;20.72;67.49
52797;BME280;38666;43.348;12.584;2022-09-01T17:48:39;95542.31;;;20.63;68.71
52797;BME280;38666;43.348;12.584;2022-09-01T17:59:04;95528.56;;;20.44;69.08
52797;BME280;38666;43.348;12.584;2022-09-01T18:10:07;95524.97;;;20.19;70.17
52797;BME280;38666;43.348;12.584;2022-09-01T18:12:38;95528.09;;;20.12;70.04
52797;BME280;38666;43.348;12.584;2022-09-01T18:15:08;95538.84;;;20.19;69.61
52797;BME280;38666;43.348;12.584;2022-09-01T18:17:59;95529.78;;;20.09;69.50
52797;BME280;38666;43.348;12.584;2022-09-01T18:20:29;95542.88;;;19.99;70.05
52797;BME280;38666;43.348;12.584;2022-09-01T18:23:04;95531.09;;;19.80;71.51
52797;BME280;38666;43.348;12.584;2022-09-01T18:25:40;95543.22;;;19.73;71.52
52797;BME280;38666;43.348;12.584;2022-09-01T18:28:07;95548.19;;;19.69;72.20
52797;BME280;38666;43.348;12.584;2022-09-01T18:30:50;95558.63;;;19.65;72.78
52797;BME280;38666;43.348;12.584;2022-09-01T18:33:27;95563.56;;;19.70;72.32
52797;BME280;38666;43.348;12.584;2022-09-01T18:38:57;95568.16;;;19.73;72.47
52797;BME280;38666;43.348;12.584;2022-09-01T18:41:30;95572.81;;;19.67;73.14
52797;BME280;38666;43.348;12.584;2022-09-01T18:44:06;95571.91;;;19.51;73.76
52797;BME280;38666;43.348;12.584;2022-09-01T18:47:03;95573.56;;;19.58;73.54
52797;BME280;38666;43.348;12.584;2022-09-01T18:49:37;95571.75;;;19.55;74.02
